Time;durP1;ratioP1;P1;durP2;ratioP2;P2;SDS_P1;SDS_P2;PMS_P1;PMS_P2;Temp;Humidity;BMP_temperature;BMP_pressure;BME280_temperature;BME280_humidity;BME280_pressure;Samples;Min_cycle;Max_cycle;Signal;HPM_P1;HPM_P2
2021/06/21 00:02:06;;;;;;;4.13;2.30;;;17.30;99.90;;;;;;4915561;29;20477;-73
2021/06/21 00:04:32;;;;;;;4.00;2.23;;;17.30;99.90;;;;;;4917399;29;20465;-72
2021/06/21 00:06:59;;;;;;;3.10;2.17;;;17.30;99.90;;;;;;4916826;29;20482;-73
2021/06/21 00:09:26;;;;;;;4.33;2.10;;;17.30;99.90;;;;;;4915319;29;21069;-73
2021/06/21 00:11:53;;;;;;;5.40;2.50;;;17.30;99.90;;;;;;4915987;29;20470;-73
2021/06/21 00:14:19;;;;;;;3.57;2.47;;;17.40;99.90;;;;;;4916307;29;20568;-73
2021/06/21 00:16:47;;;;;;;3.73;2.70;;;17.30;99.90;;;;;;4914205;29;20493;-73
2021/06/21 00:19:14;;;;;;;4.40;2.27;;;17.30;99.90;;;;;;4912785;29;20476;-73
2021/06/21 00:21:41;;;;;;;2.60;1.90;;;17.30;99.90;;;;;;4915356;29;20472;-73
2021/06/21 00:24:08;;;;;;;5.27;2.27;;;17.30;99.90;;;;;;4915153;29;20481;-73
2021/06/21 00:26:35;;;;;;;5.63;2.30;;;17.30;99.90;;;;;;4914698;29;20485;-73
2021/06/21 00:29:02;;;;;;;5.97;1.80;;;17.30;99.90;;;;;;4913642;29;21059;-73
2021/06/21 00:31:28;;;;;;;3.87;1.83;;;17.30;99.90;;;;;;4916857;29;20493;-72
2021/06/21 00:33:56;;;;;;;4.63;1.97;;;17.30;99.90;;;;;;4916375;29;20465;-73
2021/06/21 00:36:23;;;;;;;3.33;2.03;;;17.30;99.90;;;;;;4916031;29;20490;-73
2021/06/21 00:38:50;;;;;;;3.93;1.93;;;17.30;99.90;;;;;;4914353;29;20956;-73
2021/06/21 00:41:17;;;;;;;5.00;2.77;;;17.30;99.90;;;;;;4913905;29;20477;-73
2021/06/21 00:43:43;;;;;;;6.30;2.60;;;17.30;99.90;;;;;;4913949;29;20461;-73
2021/06/21 00:46:13;;;;;;;4.83;1.90;;;17.30;99.90;;;;;;4913790;29;20472;-73
2021/06/21 00:48:41;;;;;;;5.00;2.13;;;17.20;99.90;;;;;;4914276;29;20478;-73
2021/06/21 00:51:10;;;;;;;3.83;2.53;;;17.20;99.90;;;;;;4913760;29;20473;-73
2021/06/21 00:53:40;;;;;;;7.00;2.30;;;17.20;99.90;;;;;;4914621;29;20458;-73
2021/06/21 00:56:07;;;;;;;5.40;2.40;;;17.20;99.90;;;;;;4913884;29;20494;-73
2021/06/21 00:58:34;;;;;;;5.70;2.10;;;17.10;99.90;;;;;;4914111;29;20961;-73
2021/06/21 01:01:01;;;;;;;4.23;2.73;;;17.10;99.90;;;;;;4913130;29;20466;-73
2021/06/21 01:03:28;;;;;;;3.87;2.27;;;17.10;99.90;;;;;;4914799;29;20825;-73
2021/06/21 01:05:55;;;;;;;2.60;2.40;;;17.10;99.90;;;;;;4915154;29;20473;-73
2021/06/21 01:08:23;;;;;;;4.70;2.37;;;17.10;99.90;;;;;;4915429;29;20861;-73
2021/06/21 01:10:52;;;;;;;5.70;2.33;;;17.10;99.90;;;;;;4914590;29;20473;-73
2021/06/21 01:13:40;;;;;;;5.17;2.23;;;17.10;99.90;;;;;;4915691;29;20828;-73
2021/06/21 01:16:17;;;;;;;6.00;2.43;;;17.10;99.90;;;;;;4895372;29;20861;-73
2021/06/21 01:18:51;;;;;;;7.07;2.10;;;17.10;99.90;;;;;;4915534;29;20468;-73
2021/06/21 01:21:51;;;;;;;4.40;2.20;;;17.10;99.90;;;;;;4914846;29;20464;-73
2021/06/21 01:24:50;;;;;;;6.23;2.23;;;17.10;99.90;;;;;;4904517;29;20469;-73
2021/06/21 01:27:31;;;;;;;3.93;2.10;;;17.10;99.90;;;;;;4914260;29;20478;-73
2021/06/21 01:30:06;;;;;;;7.37;2.40;;;17.10;99.90;;;;;;4913289;29;20457;-73
2021/06/21 01:32:42;;;;;;;5.10;2.33;;;17.10;99.90;;;;;;4914386;29;20464;-73
2021/06/21 01:35:17;;;;;;;4.73;2.20;;;17.10;99.90;;;;;;4914246;29;20469;-73
2021/06/21 01:37:46;;;;;;;7.40;2.53;;;17.00;99.90;;;;;;4913903;29;21008;-73
2021/06/21 01:40:16;;;;;;;5.63;2.73;;;17.00;99.90;;;;;;4913413;29;20461;-73
2021/06/21 01:42:47;;;;;;;3.53;2.27;;;17.00;99.90;;;;;;4913989;29;20864;-73
2021/06/21 01:45:17;;;;;;;6.40;3.03;;;17.00;99.90;;;;;;4913168;29;20466;-73
2021/06/21 01:47:48;;;;;;;6.73;2.53;;;17.00;99.90;;;;;;4914810;29;20534;-73
2021/06/21 01:50:18;;;;;;;5.03;2.47;;;17.00;99.90;;;;;;4917553;29;20462;-73
2021/06/21 01:52:48;;;;;;;3.80;2.00;;;17.00;99.90;;;;;;4918364;29;20968;-73
2021/06/21 01:55:16;;;;;;;6.27;2.97;;;17.00;99.90;;;;;;4917900;29;20464;-73
2021/06/21 01:57:46;;;;;;;3.90;2.10;;;17.10;99.90;;;;;;4918679;29;20520;-73
2021/06/21 02:00:15;;;;;;;3.87;2.40;;;17.10;99.90;;;;;;4918322;29;20896;-73
2021/06/21 02:02:43;;;;;;;8.23;3.50;;;17.10;99.90;;;;;;4918309;29;20465;-73
2021/06/21 02:05:15;;;;;;;6.97;2.17;;;17.10;99.90;;;;;;4917978;29;20858;-73
2021/06/21 02:07:44;;;;;;;3.07;2.00;;;17.10;99.90;;;;;;4918603;29;20486;-73
2021/06/21 02:10:13;;;;;;;6.43;2.40;;;17.10;99.90;;;;;;4917516;29;20947;-73
2021/06/21 02:12:40;;;;;;;5.40;2.50;;;17.00;99.90;;;;;;4918421;29;20466;-73
2021/06/21 02:15:09;;;;;;;7.77;2.37;;;17.00;99.90;;;;;;4917731;29;20465;-73
2021/06/21 02:17:38;;;;;;;5.57;2.67;;;17.00;99.90;;;;;;4918243;29;20851;-73
2021/06/21 02:20:06;;;;;;;6.50;2.57;;;17.00;99.90;;;;;;4917735;29;20469;-73
2021/06/21 02:22:35;;;;;;;4.10;2.03;;;17.00;99.90;;;;;;4918296;29;20834;-73
2021/06/21 02:25:06;;;;;;;5.50;3.13;;;16.90;99.90;;;;;;4918176;29;20996;-73
2021/06/21 02:27:33;;;;;;;5.73;3.00;;;16.90;99.90;;;;;;4918518;29;20488;-73
2021/06/21 02:30:02;;;;;;;6.30;2.73;;;16.90;99.90;;;;;;4917647;29;20462;-73
2021/06/21 02:32:28;;;;;;;5.60;2.30;;;16.90;99.90;;;;;;4918171;29;20484;-73
2021/06/21 02:34:55;;;;;;;3.77;2.43;;;17.00;99.90;;;;;;4918031;29;20465;-73
2021/06/21 02:37:22;;;;;;;5.27;2.60;;;16.90;99.90;;;;;;4917510;29;20500;-73
2021/06/21 02:39:50;;;;;;;3.90;2.67;;;16.90;99.90;;;;;;4917883;29;20465;-73
2021/06/21 02:42:18;;;;;;;4.93;3.07;;;16.90;99.90;;;;;;4918110;29;20480;-73
2021/06/21 02:44:45;;;;;;;6.90;3.23;;;16.80;99.90;;;;;;4917830;29;20477;-73
2021/06/21 02:47:13;;;;;;;6.73;3.33;;;16.70;99.90;;;;;;4917263;29;20478;-73
2021/06/21 02:49:40;;;;;;;7.63;3.27;;;16.70;99.90;;;;;;4916804;29;20476;-73
2021/06/21 02:52:14;;;;;;;5.90;2.67;;;16.70;99.90;;;;;;4917667;29;20482;-73
2021/06/21 02:54:47;;;;;;;5.93;2.20;;;16.80;99.90;;;;;;4917776;29;20500;-73
2021/06/21 02:57:27;;;;;;;7.87;2.80;;;16.80;99.90;;;;;;4917394;29;20505;-73
2021/06/21 02:59:55;;;;;;;5.57;2.93;;;16.80;99.90;;;;;;4917627;29;20466;-73
2021/06/21 03:02:23;;;;;;;7.77;3.27;;;16.70;99.90;;;;;;4917929;29;20465;-73
2021/06/21 03:04:51;;;;;;;5.13;2.93;;;16.70;99.90;;;;;;4917596;29;20465;-73
2021/06/21 03:07:22;;;;;;;6.87;2.63;;;16.70;99.90;;;;;;4917600;29;21027;-73
2021/06/21 03:09:50;;;;;;;5.10;2.37;;;16.70;99.90;;;;;;4917017;29;20839;-74
2021/06/21 03:12:21;;;;;;;4.93;2.60;;;16.80;99.90;;;;;;4917481;29;20479;-74
2021/06/21 03:14:49;;;;;;;4.93;2.60;;;16.80;99.90;;;;;;4917852;29;20477;-73
2021/06/21 03:17:16;;;;;;;6.93;2.43;;;16.80;99.90;;;;;;4917408;29;20501;-73
2021/06/21 03:19:44;;;;;;;6.03;2.57;;;16.80;99.90;;;;;;4916735;29;20466;-73
2021/06/21 03:22:11;;;;;;;4.33;3.00;;;16.80;99.90;;;;;;4917191;29;20841;-73
2021/06/21 03:24:38;;;;;;;5.30;2.87;;;16.70;99.90;;;;;;4917084;29;20489;-74
2021/06/21 03:27:06;;;;;;;5.10;2.70;;;16.70;99.90;;;;;;4916478;29;20490;-74
2021/06/21 03:29:37;;;;;;;12.47;2.80;;;16.70;99.90;;;;;;4916957;29;20472;-74
2021/06/21 03:32:27;;;;;;;7.77;2.07;;;16.60;99.90;;;;;;4916128;29;20525;-74
2021/06/21 03:34:56;;;;;;;5.23;2.47;;;16.60;99.90;;;;;;4912274;29;20477;-75
2021/06/21 03:37:25;;;;;;;7.07;3.20;;;16.70;99.90;;;;;;4913083;29;20493;-74
2021/06/21 03:39:52;;;;;;;9.10;2.83;;;16.60;99.90;;;;;;4912766;29;20851;-77
2021/06/21 03:42:20;;;;;;;5.50;2.70;;;16.70;99.90;;;;;;4913165;29;20480;-76
2021/06/21 03:44:49;;;;;;;10.60;2.90;;;16.70;99.90;;;;;;4913516;29;20877;-76
2021/06/21 03:47:17;;;;;;;8.00;2.30;;;16.70;99.90;;;;;;4912980;29;20489;-76
2021/06/21 03:49:45;;;;;;;9.30;3.20;;;16.60;99.90;;;;;;4915239;29;20474;-75
2021/06/21 03:52:12;;;;;;;6.20;3.00;;;16.60;99.90;;;;;;4913799;29;20466;-78
2021/06/21 03:54:39;;;;;;;6.70;2.33;;;16.70;99.90;;;;;;4914283;29;20561;-77
2021/06/21 03:57:07;;;;;;;5.23;2.57;;;16.70;99.90;;;;;;4988219;23;20500;-69
2021/06/21 03:59:34;;;;;;;4.27;2.53;;;16.70;99.90;;;;;;4924568;29;20473;-68
2021/06/21 04:02:03;;;;;;;5.73;3.40;;;16.70;99.90;;;;;;4914343;29;20466;-69
2021/06/21 04:04:30;;;;;;;7.20;2.93;;;16.70;99.90;;;;;;4913928;29;20487;-69
2021/06/21 04:06:56;;;;;;;4.07;2.20;;;16.70;99.90;;;;;;4913664;29;20481;-69
2021/06/21 04:09:23;;;;;;;7.23;2.17;;;16.70;99.90;;;;;;4913804;29;20474;-69
2021/06/21 04:11:50;;;;;;;4.80;2.27;;;16.70;99.90;;;;;;4913352;29;20465;-69
2021/06/21 04:14:18;;;;;;;4.23;2.30;;;16.80;99.90;;;;;;4914276;29;20501;-69
2021/06/21 04:16:44;;;;;;;6.33;2.47;;;16.80;99.90;;;;;;4913446;29;20485;-69
2021/06/21 04:19:12;;;;;;;4.30;1.93;;;16.80;99.90;;;;;;4914063;29;20476;-69
2021/06/21 04:21:39;;;;;;;5.07;2.20;;;16.80;99.90;;;;;;4913707;29;20466;-69
2021/06/21 04:24:07;;;;;;;5.17;2.40;;;16.70;99.90;;;;;;4913677;29;20472;-69
2021/06/21 04:26:35;;;;;;;3.40;2.23;;;16.70;99.90;;;;;;4913834;29;20494;-70
2021/06/21 04:29:02;;;;;;;7.10;2.40;;;16.70;99.90;;;;;;4913590;29;20953;-69
2021/06/21 04:31:28;;;;;;;10.23;3.43;;;16.80;99.90;;;;;;4913836;29;20536;-69
2021/06/21 04:33:55;;;;;;;7.97;2.50;;;16.70;99.90;;;;;;4914079;29;20462;-69
2021/06/21 04:36:23;;;;;;;5.70;2.57;;;16.80;99.90;;;;;;4914185;29;20485;-69
2021/06/21 04:38:50;;;;;;;6.23;3.10;;;16.80;99.90;;;;;;4914005;29;20469;-68
2021/06/21 04:41:17;;;;;;;5.50;2.60;;;16.80;99.90;;;;;;4913592;29;20469;-69
2021/06/21 04:43:43;;;;;;;4.40;2.50;;;16.80;99.90;;;;;;4914063;29;20477;-69
2021/06/21 04:46:10;;;;;;;5.13;2.57;;;16.80;99.90;;;;;;4913793;29;20474;-70
2021/06/21 04:48:37;;;;;;;6.27;2.80;;;16.70;99.90;;;;;;4913971;29;20548;-71
2021/06/21 04:51:04;;;;;;;7.10;2.83;;;16.70;99.90;;;;;;4913170;29;20468;-70
2021/06/21 04:53:32;;;;;;;7.73;2.20;;;16.70;99.90;;;;;;4913972;29;20553;-71
2021/06/21 04:55:59;;;;;;;8.10;2.80;;;16.80;99.90;;;;;;4913249;29;20478;-71
2021/06/21 04:58:27;;;;;;;4.07;2.53;;;16.80;99.90;;;;;;4913858;29;21113;-70
2021/06/21 05:00:53;;;;;;;6.00;2.33;;;16.80;99.90;;;;;;4913037;29;20466;-71
2021/06/21 05:03:20;;;;;;;5.33;2.90;;;16.80;99.90;;;;;;4913881;29;20477;-70
2021/06/21 05:05:47;;;;;;;7.80;2.70;;;16.80;99.90;;;;;;4913408;29;20470;-71
2021/06/21 05:08:14;;;;;;;6.53;2.43;;;16.80;99.90;;;;;;4913442;29;20541;-70
2021/06/21 05:10:42;;;;;;;7.30;1.97;;;16.80;99.90;;;;;;4913153;29;20469;-70
2021/06/21 05:13:09;;;;;;;3.33;2.60;;;16.90;99.90;;;;;;4913621;29;20472;-70
2021/06/21 05:15:36;;;;;;;6.43;2.80;;;17.00;99.90;;;;;;4913551;29;20494;-69
2021/06/21 05:18:03;;;;;;;7.70;2.70;;;16.90;99.90;;;;;;4913139;29;20493;-70
2021/06/21 05:20:30;;;;;;;5.20;2.10;;;17.00;99.90;;;;;;4912986;29;20834;-70
2021/06/21 05:22:56;;;;;;;4.93;2.40;;;17.10;99.90;;;;;;4912655;29;20713;-70
2021/06/21 05:25:23;;;;;;;6.50;2.57;;;17.10;99.90;;;;;;4913641;29;20474;-70
2021/06/21 05:27:52;;;;;;;5.53;2.53;;;17.10;99.90;;;;;;4913300;29;20524;-69
2021/06/21 05:30:20;;;;;;;5.40;2.73;;;17.10;99.90;;;;;;4912887;29;20469;-69
2021/06/21 05:32:46;;;;;;;4.40;1.93;;;17.00;99.90;;;;;;4913240;29;20560;-69
2021/06/21 05:35:15;;;;;;;6.00;2.77;;;17.10;99.90;;;;;;4913218;29;20469;-68
2021/06/21 05:37:41;;;;;;;5.93;2.30;;;17.10;99.90;;;;;;4913253;29;20494;-70
2021/06/21 05:40:09;;;;;;;7.77;2.30;;;17.20;99.90;;;;;;4912469;29;20469;-70
2021/06/21 05:42:36;;;;;;;5.93;2.67;;;17.20;99.90;;;;;;4913317;29;20965;-70
2021/06/21 05:45:05;;;;;;;4.93;2.43;;;17.20;99.90;;;;;;4913282;29;20473;-69
2021/06/21 05:47:32;;;;;;;9.03;2.20;;;17.30;99.90;;;;;;4913283;29;20481;-69
2021/06/21 05:49:58;;;;;;;6.90;2.23;;;17.40;99.90;;;;;;4912547;29;20833;-69
2021/06/21 05:52:25;;;;;;;6.27;2.50;;;17.50;99.90;;;;;;4913347;29;20472;-69
2021/06/21 05:54:58;;;;;;;2.77;2.13;;;17.40;99.90;;;;;;4913238;29;20465;-70
2021/06/21 05:57:25;;;;;;;5.60;2.47;;;17.40;99.90;;;;;;4913172;29;20504;-70
2021/06/21 05:59:52;;;;;;;6.70;3.07;;;17.40;99.90;;;;;;4912550;29;20473;-69
2021/06/21 06:02:20;;;;;;;3.93;2.20;;;17.50;99.90;;;;;;4913119;29;20474;-69
2021/06/21 06:04:47;;;;;;;6.03;2.10;;;17.50;99.90;;;;;;4912934;29;20565;-69
2021/06/21 06:07:13;;;;;;;5.70;2.67;;;17.60;99.90;;;;;;4912856;29;20486;-69
2021/06/21 06:09:40;;;;;;;7.50;2.90;;;17.70;99.90;;;;;;4912010;29;20465;-69
2021/06/21 06:12:08;;;;;;;5.53;2.27;;;17.70;99.90;;;;;;4912021;29;21007;-69
2021/06/21 06:14:35;;;;;;;8.10;2.37;;;17.80;99.90;;;;;;4912813;29;20486;-69
2021/06/21 06:17:02;;;;;;;5.60;2.23;;;17.70;99.90;;;;;;4911935;29;20529;-69
2021/06/21 06:19:30;;;;;;;5.53;2.33;;;17.80;99.90;;;;;;4911866;29;20472;-68
2021/06/21 06:21:56;;;;;;;5.27;2.10;;;17.90;99.90;;;;;;4911891;29;20466;-69
2021/06/21 06:24:25;;;;;;;4.40;2.23;;;17.90;99.90;;;;;;4912167;29;20469;-70
2021/06/21 06:26:52;;;;;;;6.07;2.37;;;17.90;99.90;;;;;;4911917;29;20842;-68
2021/06/21 06:29:19;;;;;;;4.90;2.63;;;18.00;99.90;;;;;;4912335;29;20727;-66
2021/06/21 06:31:47;;;;;;;6.60;2.77;;;18.00;99.90;;;;;;4906353;29;20958;-69
2021/06/21 06:34:15;;;;;;;5.20;2.30;;;18.00;99.90;;;;;;4892601;29;20459;-70
2021/06/21 06:36:44;;;;;;;6.27;2.30;;;18.00;99.90;;;;;;4895493;29;20482;-70
2021/06/21 06:39:10;;;;;;;5.87;2.57;;;18.10;99.90;;;;;;4899632;29;20492;-70
2021/06/21 06:41:37;;;;;;;4.73;2.20;;;18.10;99.90;;;;;;4912250;29;20465;-70
2021/06/21 06:44:05;;;;;;;6.40;2.10;;;18.20;99.90;;;;;;4912289;29;20472;-67
2021/06/21 06:46:32;;;;;;;3.43;2.20;;;18.30;99.90;;;;;;4913853;29;20493;-68
2021/06/21 06:48:59;;;;;;;3.67;2.30;;;18.40;99.90;;;;;;4913283;29;20465;-67
2021/06/21 06:51:28;;;;;;;4.70;2.53;;;18.50;99.90;;;;;;4912723;29;20552;-67
2021/06/21 06:54:03;;;;;;;7.10;2.13;;;18.50;99.90;;;;;;4913235;29;20473;-67
2021/06/21 06:59:16;;;;;;;5.10;1.90;;;18.50;99.90;;;;;;4912941;29;20488;-69
2021/06/21 07:01:45;;;;;;;5.80;2.53;;;18.60;99.90;;;;;;4912669;29;20511;-70
2021/06/21 07:04:12;;;;;;;6.60;2.10;;;18.70;99.90;;;;;;4912866;29;20541;-68
2021/06/21 07:06:40;;;;;;;5.77;2.17;;;18.80;99.90;;;;;;4912986;29;20496;-69
2021/06/21 07:09:09;;;;;;;2.90;1.90;;;18.80;99.90;;;;;;4912799;29;20497;-69
2021/06/21 07:11:36;;;;;;;4.33;2.50;;;18.90;99.90;;;;;;4912001;29;20470;-69
2021/06/21 07:14:03;;;;;;;7.13;2.20;;;19.10;99.90;;;;;;4913079;29;20469;-69
2021/06/21 07:16:30;;;;;;;3.80;2.10;;;19.20;99.90;;;;;;4912830;29;20482;-69
2021/06/21 07:18:57;;;;;;;8.40;2.73;;;19.30;99.90;;;;;;4912203;29;20493;-69
2021/06/21 07:21:24;;;;;;;4.63;2.10;;;19.30;99.90;;;;;;4912362;29;21320;-69
2021/06/21 07:23:51;;;;;;;4.90;2.67;;;19.40;99.90;;;;;;4912253;29;20465;-69
2021/06/21 07:26:20;;;;;;;4.87;2.00;;;19.40;99.90;;;;;;4911572;29;20469;-69
2021/06/21 07:28:48;;;;;;;4.70;2.00;;;19.60;99.90;;;;;;4911293;29;20507;-68
2021/06/21 07:31:16;;;;;;;4.27;2.33;;;19.60;99.90;;;;;;4910918;29;20893;-69
2021/06/21 07:33:44;;;;;;;4.30;1.83;;;19.80;99.90;;;;;;4911725;29;20530;-68
2021/06/21 07:36:11;;;;;;;4.10;1.93;;;19.80;99.90;;;;;;4911966;29;20507;-69
2021/06/21 07:38:40;;;;;;;4.60;2.27;;;19.80;99.90;;;;;;4912160;29;20486;-70
2021/06/21 07:41:11;;;;;;;6.87;2.10;;;19.90;99.90;;;;;;4910923;29;20473;-68
2021/06/21 07:43:40;;;;;;;7.57;2.17;;;20.00;99.90;;;;;;4912233;29;20466;-69
2021/06/21 07:46:08;;;;;;;3.67;1.97;;;20.00;99.90;;;;;;4910951;29;20534;-69
2021/06/21 07:48:37;;;;;;;3.97;1.80;;;20.00;99.90;;;;;;4912044;29;20465;-69
2021/06/21 07:51:07;;;;;;;4.40;2.30;;;20.00;99.90;;;;;;4911164;29;20470;-69
2021/06/21 07:53:34;;;;;;;4.00;1.90;;;20.10;99.90;;;;;;4912303;29;20553;-69
2021/06/21 07:56:01;;;;;;;4.93;2.10;;;20.10;99.90;;;;;;4910997;29;20473;-69
2021/06/21 07:58:28;;;;;;;2.50;2.27;;;20.10;99.90;;;;;;4911989;29;20493;-69
2021/06/21 08:00:57;;;;;;;1.90;1.47;;;20.20;99.90;;;;;;4910994;29;20476;-69
2021/06/21 08:03:24;;;;;;;4.97;2.07;;;20.30;99.90;;;;;;4911103;29;20461;-70
2021/06/21 08:05:52;;;;;;;3.33;2.07;;;20.40;99.90;;;;;;4911928;29;20515;-69
2021/06/21 08:08:20;;;;;;;7.53;2.20;;;20.50;99.90;;;;;;4911880;29;20841;-68
2021/06/21 08:10:46;;;;;;;4.22;2.10;;;20.60;99.90;;;;;;4910112;29;20480;-69
2021/06/21 08:13:13;;;;;;;3.97;2.03;;;20.70;99.90;;;;;;4911694;29;20201;-69
2021/06/21 08:15:40;;;;;;;3.03;1.80;;;20.80;99.90;;;;;;4911927;29;20477;-69
2021/06/21 08:18:10;;;;;;;6.50;2.00;;;20.90;99.90;;;;;;4911386;29;20928;-69
2021/06/21 08:20:39;;;;;;;4.90;1.80;;;21.00;99.90;;;;;;4910829;29;20473;-70
2021/06/21 08:23:06;;;;;;;3.03;2.03;;;21.00;99.90;;;;;;4911839;29;20477;-70
2021/06/21 08:25:33;;;;;;;2.90;2.07;;;20.90;99.90;;;;;;4911504;29;20465;-69
2021/06/21 08:28:00;;;;;;;5.70;2.03;;;20.80;99.90;;;;;;4911388;29;21016;-69
2021/06/21 08:30:27;;;;;;;4.40;2.50;;;20.70;99.90;;;;;;4910999;29;20473;-69
2021/06/21 08:32:53;;;;;;;3.90;2.10;;;20.70;99.90;;;;;;4911124;29;20481;-70
2021/06/21 08:35:21;;;;;;;3.37;1.80;;;20.70;99.90;;;;;;4911390;29;20468;-70
2021/06/21 08:37:48;;;;;;;2.40;1.73;;;20.70;99.90;;;;;;4911799;29;20505;-69
2021/06/21 08:40:16;;;;;;;4.07;2.00;;;20.70;99.90;;;;;;4910793;29;20883;-68
2021/06/21 08:42:43;;;;;;;4.87;2.07;;;20.70;99.90;;;;;;4911492;29;20821;-68
2021/06/21 08:45:12;;;;;;;3.00;1.67;;;20.80;99.90;;;;;;4910867;29;20470;-70
2021/06/21 08:47:40;;;;;;;8.60;2.53;;;20.90;99.90;;;;;;4911366;29;20497;-70
2021/06/21 08:50:10;;;;;;;3.30;1.70;;;21.00;99.90;;;;;;4910070;29;20897;-70
2021/06/21 08:52:42;;;;;;;5.07;2.07;;;21.20;99.90;;;;;;4911570;29;20475;-69
2021/06/21 08:55:10;;;;;;;2.03;1.73;;;21.30;99.90;;;;;;4911480;29;20480;-70
2021/06/21 08:57:39;;;;;;;3.00;1.70;;;21.30;99.90;;;;;;4910832;29;20494;-69
2021/06/21 09:00:09;;;;;;;2.80;1.70;;;21.40;99.90;;;;;;4910927;29;20942;-70
2021/06/21 09:02:36;;;;;;;4.83;2.10;;;21.50;99.90;;;;;;4910691;29;20966;-70
2021/06/21 09:05:06;;;;;;;3.53;2.10;;;21.50;99.90;;;;;;4911816;29;20472;-69
2021/06/21 09:07:33;;;;;;;2.97;1.90;;;21.70;99.90;;;;;;4911555;29;20661;-70
2021/06/21 09:10:05;;;;;;;4.73;2.13;;;21.90;99.90;;;;;;4910361;29;20462;-70
2021/06/21 09:12:33;;;;;;;3.03;2.33;;;22.00;99.90;;;;;;4911739;29;20688;-69
2021/06/21 09:15:02;;;;;;;2.70;1.63;;;22.20;99.90;;;;;;4911319;29;20469;-70
2021/06/21 09:17:30;;;;;;;2.60;1.70;;;22.30;99.90;;;;;;4911257;29;20493;-69
2021/06/21 09:20:00;;;;;;;5.10;2.23;;;22.30;99.90;;;;;;4910780;29;20496;-68
2021/06/21 09:22:35;;;;;;;7.60;2.00;;;22.30;99.90;;;;;;4911838;29;20567;-69
2021/06/21 09:25:06;;;;;;;3.90;1.80;;;22.40;99.90;;;;;;4910777;29;20457;-69
2021/06/21 09:27:34;;;;;;;2.53;1.87;;;22.50;99.90;;;;;;4911388;29;20486;-69
2021/06/21 09:30:10;;;;;;;3.93;2.20;;;22.60;99.90;;;;;;4910258;29;21128;-69
2021/06/21 09:32:42;;;;;;;2.63;1.80;;;22.60;99.90;;;;;;4911225;29;20921;-69
2021/06/21 09:35:11;;;;;;;4.83;1.97;;;22.70;99.90;;;;;;4910851;29;20521;-68
2021/06/21 09:37:46;;;;;;;4.37;1.83;;;22.70;99.90;;;;;;4911171;29;20490;-69
2021/06/21 09:40:28;;;;;;;2.90;2.10;;;22.70;99.90;;;;;;4910472;29;20497;-69
2021/06/21 09:42:55;;;;;;;3.77;1.97;;;22.70;99.90;;;;;;4913227;29;20472;-69
2021/06/21 09:45:22;;;;;;;3.27;1.67;;;22.80;99.90;;;;;;4913363;29;20951;-69
2021/06/21 09:47:49;;;;;;;3.43;2.13;;;22.80;99.90;;;;;;4913357;29;20536;-69
2021/06/21 09:50:18;;;;;;;3.83;1.97;;;22.90;99.90;;;;;;4912952;29;20473;-68
2021/06/21 09:52:48;;;;;;;3.10;1.80;;;23.10;99.90;;;;;;4913285;29;20465;-69
2021/06/21 09:55:35;;;;;;;3.97;1.93;;;23.20;99.90;;;;;;4912145;29;20472;-69
2021/06/21 09:58:13;;;;;;;3.90;2.10;;;23.40;99.90;;;;;;5039076;23;20496;-72
2021/06/21 10:00:42;;;;;;;3.83;2.40;;;23.50;99.90;;;;;;4931465;29;20461;-72
2021/06/21 10:03:15;;;;;;;1.83;1.57;;;23.60;99.90;;;;;;4932488;29;20822;-72
2021/06/21 10:05:43;;;;;;;2.60;1.80;;;23.60;99.90;;;;;;4931617;29;20460;-71
2021/06/21 10:08:13;;;;;;;2.93;1.77;;;23.60;99.90;;;;;;4931895;29;21000;-72
2021/06/21 10:10:41;;;;;;;3.47;2.30;;;23.70;99.90;;;;;;4917083;29;20481;-71
2021/06/21 10:13:12;;;;;;;2.60;1.90;;;23.90;99.90;;;;;;4912661;29;20464;-72
2021/06/21 10:15:39;;;;;;;3.10;1.70;;;24.00;99.90;;;;;;4915924;29;20462;-72
2021/06/21 10:18:07;;;;;;;4.70;2.33;;;24.10;99.90;;;;;;4915591;29;20490;-72
2021/06/21 10:20:34;;;;;;;5.37;2.23;;;24.20;99.90;;;;;;4915693;29;20465;-73
2021/06/21 10:23:07;;;;;;;4.33;2.03;;;24.20;99.90;;;;;;4915598;29;20470;-73
2021/06/21 10:25:35;;;;;;;2.37;1.80;;;24.40;99.90;;;;;;4916207;29;20468;-72
2021/06/21 10:28:03;;;;;;;5.00;1.60;;;24.50;99.90;;;;;;4915500;29;20492;-72
2021/06/21 10:30:32;;;;;;;4.43;2.07;;;24.60;99.90;;;;;;4915434;29;20469;-72
2021/06/21 10:33:00;;;;;;;3.00;1.80;;;24.60;99.90;;;;;;4915705;29;20521;-73
2021/06/21 10:35:30;;;;;;;2.30;1.90;;;24.80;99.90;;;;;;4915935;29;20530;-72
2021/06/21 10:38:00;;;;;;;4.07;2.07;;;24.80;99.90;;;;;;4916019;29;20488;-72
2021/06/21 10:40:27;;;;;;;5.90;2.60;;;24.90;99.90;;;;;;4915273;29;20485;-71
2021/06/21 10:42:54;;;;;;;3.30;1.80;;;25.00;99.90;;;;;;4914237;29;20469;-73
2021/06/21 10:45:23;;;;;;;3.47;1.87;;;25.10;99.90;;;;;;4915646;29;20477;-73
2021/06/21 10:47:51;;;;;;;4.77;2.20;;;25.10;99.90;;;;;;4915308;29;20495;-73
2021/06/21 10:50:23;;;;;;;3.97;2.70;;;25.20;99.90;;;;;;4915071;29;20458;-73
2021/06/21 10:52:59;;;;;;;3.23;1.77;;;25.20;99.90;;;;;;4915477;29;20469;-73
2021/06/21 10:55:42;;;;;;;2.87;1.93;;;25.30;99.90;;;;;;4915455;29;20484;-74
2021/06/21 10:58:44;;;;;;;4.40;1.77;;;25.40;99.90;;;;;;4915228;29;20936;-74
2021/06/21 11:01:23;;;;;;;2.80;1.70;;;25.40;99.90;;;;;;4914578;29;21086;-72
2021/06/21 11:03:52;;;;;;;4.70;2.07;;;25.40;99.90;;;;;;4915101;29;20885;-72
2021/06/21 11:06:39;;;;;;;3.70;2.00;;;25.30;99.90;;;;;;4915142;29;20893;-71
2021/06/21 11:09:07;;;;;;;2.77;1.83;;;25.20;99.90;;;;;;4915205;29;20473;-73
2021/06/21 11:11:43;;;;;;;3.70;1.80;;;25.10;99.90;;;;;;4914949;29;20467;-73
2021/06/21 11:14:10;;;;;;;4.80;1.80;;;25.10;99.90;;;;;;4914853;29;20465;-73
2021/06/21 11:16:40;;;;;;;4.00;2.00;;;25.30;99.90;;;;;;4914765;29;20502;-73
2021/06/21 11:19:30;;;;;;;5.23;2.03;;;25.40;99.90;;;;;;4914638;29;20591;-74
2021/06/21 11:21:59;;;;;;;2.40;1.80;;;25.50;99.90;;;;;;4913139;29;20461;-73
2021/06/21 11:24:49;;;;;;;2.13;1.90;;;25.70;99.90;;;;;;4914618;29;20470;-73
2021/06/21 11:27:17;;;;;;;4.27;2.60;;;25.80;99.90;;;;;;4914674;29;20485;-73
2021/06/21 11:29:46;;;;;;;2.13;1.90;;;26.00;99.90;;;;;;4913805;29;20670;-73
2021/06/21 11:32:15;;;;;;;2.30;1.60;;;26.00;99.90;;;;;;4914720;29;20481;-73
2021/06/21 11:34:49;;;;;;;4.13;1.83;;;26.20;99.90;;;;;;4914210;29;20465;-73
2021/06/21 11:37:34;;;;;;;2.70;1.93;;;26.30;99.90;;;;;;4914559;29;20495;-73
2021/06/21 11:40:26;;;;;;;3.30;2.20;;;26.40;99.90;;;;;;4913325;29;20497;-73
2021/06/21 11:43:16;;;;;;;2.43;1.80;;;26.50;99.90;;;;;;4914049;29;20497;-73
2021/06/21 11:45:52;;;;;;;2.87;1.70;;;26.50;99.90;;;;;;4913906;29;20466;-73
2021/06/21 11:48:24;;;;;;;3.07;1.70;;;26.50;99.90;;;;;;4913955;29;21029;-73
2021/06/21 11:50:53;;;;;;;3.33;1.83;;;26.50;99.90;;;;;;4913003;29;20458;-73
2021/06/21 11:53:19;;;;;;;5.60;1.70;;;26.60;99.90;;;;;;4914261;29;20827;-73
2021/06/21 11:55:46;;;;;;;2.60;1.60;;;26.60;99.90;;;;;;4913543;29;20522;-73
2021/06/21 11:58:13;;;;;;;2.60;1.60;;;26.70;99.90;;;;;;4914022;29;20497;-73
2021/06/21 12:00:40;;;;;;;1.93;1.70;;;26.80;99.90;;;;;;4913118;29;20494;-73
2021/06/21 12:03:09;;;;;;;3.70;1.77;;;26.90;99.90;;;;;;4913565;29;20835;-73
2021/06/21 12:05:36;;;;;;;1.90;1.70;;;27.00;99.90;;;;;;4913850;29;20482;-73
2021/06/21 12:08:14;;;;;;;2.10;1.87;;;27.10;99.90;;;;;;4913391;29;20561;-73
2021/06/21 12:10:41;;;;;;;4.53;1.77;;;27.20;99.90;;;;;;4913209;29;20562;-73
2021/06/21 12:13:08;;;;;;;3.30;2.37;;;27.30;99.90;;;;;;4913698;29;20474;-73
2021/06/21 12:15:37;;;;;;;2.80;2.07;;;27.30;99.90;;;;;;4913685;29;20469;-73
2021/06/21 12:18:05;;;;;;;4.77;2.13;;;27.10;99.90;;;;;;4913245;29;20493;-74
2021/06/21 12:20:33;;;;;;;4.57;2.00;;;26.80;99.90;;;;;;4913242;29;20968;-73
2021/06/21 12:23:03;;;;;;;2.83;2.20;;;26.40;99.90;;;;;;4913028;29;20476;-73
2021/06/21 12:25:33;;;;;;;2.27;1.87;;;26.20;99.90;;;;;;4912558;29;20470;-72
2021/06/21 12:28:12;;;;;;;5.13;2.03;;;26.10;99.90;;;;;;4909460;29;20481;-72
2021/06/21 12:30:41;;;;;;;4.47;2.50;;;25.90;99.90;;;;;;4910314;29;20801;-73
2021/06/21 12:33:31;;;;;;;4.77;2.43;;;25.70;99.90;;;;;;4910599;29;20465;-73
2021/06/21 12:36:24;;;;;;;2.43;2.10;;;25.70;99.90;;;;;;4910758;29;20852;-73
2021/06/21 12:39:06;;;;;;;5.97;2.03;;;25.60;99.90;;;;;;4911791;29;20466;-71
2021/06/21 16:02:01;;;;;;;4.10;1.93;;;25.60;99.90;;;;;;4873332;29;20459;-93
2021/06/21 16:04:32;;;;;;;3.73;2.90;;;25.50;99.90;;;;;;4935816;29;20962;-93
2021/06/21 16:07:01;;;;;;;2.97;1.83;;;25.40;99.90;;;;;;4935329;29;20453;-93
2021/06/21 16:09:28;;;;;;;2.20;1.90;;;25.30;99.90;;;;;;4934620;29;20465;-94
2021/06/21 16:12:12;;;;;;;3.47;2.30;;;25.30;99.90;;;;;;4935867;29;20448;-93
2021/06/21 16:14:39;;;;;;;2.23;1.97;;;25.20;99.90;;;;;;4935855;29;20469;-92
2021/06/21 16:17:08;;;;;;;2.70;2.10;;;25.10;99.90;;;;;;4936037;29;20612;-93
2021/06/21 16:19:37;;;;;;;4.23;2.70;;;25.00;99.90;;;;;;4935381;29;20844;-93
2021/06/21 16:22:13;;;;;;;2.20;2.00;;;24.90;99.90;;;;;;4935918;29;20469;-93